Time;durP1;ratioP1;P1;durP2;ratioP2;P2;SDS_P1;SDS_P2;PMS_P1;PMS_P2;Temp;Humidity;BMP_temperature;BMP_pressure;BME280_temperature;BME280_humidity;BME280_pressure;Samples;Min_cycle;Max_cycle;Signal;HPM_P1;HPM_P2
2022/06/30 00:00:15;;;;;;;10.30;9.40;;;23.40;74.20;;;;;;5067598;28;20553;-49
2022/06/30 00:02:42;;;;;;;10.63;9.63;;;23.40;74.40;;;;;;5067872;28;20449;-49
2022/06/30 00:05:09;;;;;;;11.00;9.93;;;23.30;74.60;;;;;;5066633;28;20468;-49
2022/06/30 00:07:36;;;;;;;12.10;10.90;;;23.30;74.60;;;;;;5053129;28;20485;-49
2022/06/30 00:10:03;;;;;;;13.30;11.43;;;23.30;74.80;;;;;;5049442;28;20931;-49
2022/06/30 00:12:30;;;;;;;11.40;10.30;;;23.30;74.50;;;;;;5064310;28;20448;-49
2022/06/30 00:14:57;;;;;;;11.93;10.73;;;23.20;74.50;;;;;;5052899;28;20437;-49
2022/06/30 00:17:24;;;;;;;12.07;10.87;;;23.20;74.70;;;;;;5064066;28;20457;-49
2022/06/30 00:19:50;;;;;;;11.83;10.57;;;23.10;74.90;;;;;;5065748;28;20833;-49
2022/06/30 00:22:17;;;;;;;12.50;11.30;;;23.10;75.00;;;;;;5067360;28;20457;-49
2022/06/30 00:24:44;;;;;;;11.23;10.23;;;23.10;75.00;;;;;;5068752;28;20880;-48
2022/06/30 00:27:11;;;;;;;11.20;10.00;;;23.10;75.10;;;;;;5063983;28;20507;-49
2022/06/30 00:29:38;;;;;;;11.03;10.03;;;23.00;75.30;;;;;;5064768;28;20442;-49
2022/06/30 00:32:06;;;;;;;11.03;9.97;;;23.00;75.30;;;;;;5050370;28;20446;-48
2022/06/30 00:34:33;;;;;;;11.23;10.23;;;23.00;75.50;;;;;;5065399;28;20445;-49
2022/06/30 00:37:00;;;;;;;11.77;10.63;;;23.00;75.50;;;;;;5064559;28;20449;-49
2022/06/30 00:39:28;;;;;;;12.13;10.93;;;23.00;75.40;;;;;;5067677;28;20447;-49
2022/06/30 00:41:56;;;;;;;11.83;10.73;;;23.00;75.50;;;;;;5063238;28;20511;-49
2022/06/30 00:44:23;;;;;;;10.90;9.83;;;22.90;75.60;;;;;;5064991;28;20447;-49
2022/06/30 00:46:50;;;;;;;11.47;10.47;;;22.90;75.50;;;;;;5069402;28;21071;-49
2022/06/30 00:49:18;;;;;;;12.13;10.97;;;22.90;75.50;;;;;;5049793;28;20456;-49
2022/06/30 00:51:45;;;;;;;11.20;10.10;;;22.90;75.40;;;;;;5064774;28;20901;-49
2022/06/30 00:54:12;;;;;;;11.57;10.37;;;22.90;75.50;;;;;;5064965;28;20819;-49
2022/06/30 00:56:43;;;;;;;11.20;10.10;;;22.90;75.60;;;;;;5068089;28;20790;-48
2022/06/30 00:59:13;;;;;;;11.10;10.10;;;22.80;75.70;;;;;;5051803;28;20441;-49
2022/06/30 01:01:43;;;;;;;12.70;11.60;;;22.80;75.70;;;;;;5062129;28;20833;-49
2022/06/30 01:04:13;;;;;;;12.90;11.70;;;22.80;75.80;;;;;;5051024;28;20813;-48
2022/06/30 01:06:44;;;;;;;10.83;9.93;;;22.80;75.80;;;;;;5048698;28;20572;-49
2022/06/30 01:12:41;;;;;;;13.00;10.80;;;22.80;75.80;;;;;;5046905;28;20445;-49
2022/06/30 01:14:48;;;;;;;12.10;10.93;;;22.80;75.50;;;;;;5047770;28;20464;-49
2022/06/30 01:17:15;;;;;;;12.10;11.00;;;22.80;75.30;;;;;;5045915;28;20491;-49
2022/06/30 01:19:55;;;;;;;13.07;11.87;;;22.70;75.50;;;;;;5064104;28;20465;-49
2022/06/30 01:22:22;;;;;;;13.77;12.20;;;22.60;76.00;;;;;;5066938;28;20445;-49
2022/06/30 01:24:49;;;;;;;12.47;11.20;;;22.60;76.20;;;;;;5062039;28;20495;-48
2022/06/30 01:27:16;;;;;;;12.73;11.43;;;22.60;76.10;;;;;;5064320;28;20489;-48
2022/06/30 01:29:43;;;;;;;12.20;11.00;;;22.60;76.10;;;;;;5065191;28;20445;-49
2022/06/30 01:32:10;;;;;;;11.80;10.73;;;22.60;76.20;;;;;;5064847;28;20486;-49
2022/06/30 01:34:37;;;;;;;12.30;10.90;;;22.50;76.30;;;;;;5063661;28;20449;-49
2022/06/30 01:37:04;;;;;;;12.33;11.20;;;22.50;76.20;;;;;;5057229;28;20445;-48
2022/06/30 01:39:31;;;;;;;12.43;11.23;;;22.50;76.30;;;;;;5063204;28;20441;-48
2022/06/30 01:41:59;;;;;;;13.70;11.67;;;22.40;76.50;;;;;;5068561;28;20843;-48
2022/06/30 01:44:26;;;;;;;13.20;11.93;;;22.40;76.60;;;;;;5066983;28;20482;-48
2022/06/30 01:46:53;;;;;;;13.33;12.07;;;22.40;76.50;;;;;;5048093;28;20511;-48
2022/06/30 01:49:20;;;;;;;11.83;10.67;;;22.40;76.40;;;;;;5065986;28;20457;-48
2022/06/30 01:51:47;;;;;;;15.07;11.83;;;22.40;76.60;;;;;;5066261;28;20815;-49
2022/06/30 01:54:14;;;;;;;11.50;10.07;;;22.30;76.70;;;;;;5067038;28;20443;-49
2022/06/30 01:56:41;;;;;;;12.70;11.43;;;22.30;76.70;;;;;;5064079;28;20544;-49
2022/06/30 01:59:08;;;;;;;11.27;10.30;;;22.30;76.60;;;;;;5063671;28;20445;-49
2022/06/30 02:01:35;;;;;;;12.13;10.93;;;22.30;76.70;;;;;;5050993;28;20935;-49
2022/06/30 02:04:48;;;;;;;12.40;11.20;;;22.30;76.80;;;;;;5067407;28;20941;-48
2022/06/30 02:06:50;;;;;;;12.83;11.63;;;22.30;76.70;;;;;;5063797;28;20481;-48
2022/06/30 02:09:17;;;;;;;12.50;11.40;;;22.30;76.70;;;;;;5070906;28;20448;-49
2022/06/30 02:11:44;;;;;;;11.03;9.93;;;22.20;76.70;;;;;;5067634;28;20448;-48
2022/06/30 02:14:11;;;;;;;12.47;11.37;;;22.30;76.60;;;;;;5069081;28;20532;-48
2022/06/30 02:16:37;;;;;;;13.67;11.93;;;22.30;76.60;;;;;;5052410;28;20453;-48
2022/06/30 02:19:04;;;;;;;11.17;10.17;;;22.20;76.60;;;;;;5069805;28;20513;-48
2022/06/30 02:21:31;;;;;;;13.90;12.40;;;22.20;76.60;;;;;;5070138;28;20455;-48
2022/06/30 02:23:58;;;;;;;10.77;9.67;;;22.20;76.20;;;;;;5054182;28;20452;-48
2022/06/30 02:26:24;;;;;;;13.10;11.80;;;22.30;75.80;;;;;;5070241;28;20789;-48
2022/06/30 02:28:51;;;;;;;11.97;10.77;;;22.20;75.80;;;;;;5055566;28;20492;-48
2022/06/30 02:31:18;;;;;;;11.57;10.50;;;22.20;76.00;;;;;;5065742;28;20449;-48
2022/06/30 02:33:45;;;;;;;12.77;11.57;;;22.10;76.40;;;;;;5063698;28;20460;-48
2022/06/30 02:36:11;;;;;;;11.17;10.17;;;22.00;76.70;;;;;;5049086;28;20471;-48
2022/06/30 02:38:38;;;;;;;11.90;10.80;;;22.00;76.80;;;;;;5047567;28;20834;-48
2022/06/30 02:41:05;;;;;;;17.10;11.80;;;22.00;77.00;;;;;;5064083;28;20460;-48
2022/06/30 02:43:32;;;;;;;11.77;10.30;;;22.00;77.00;;;;;;5063876;28;20943;-48
2022/06/30 02:45:58;;;;;;;11.50;10.17;;;22.00;77.10;;;;;;5064282;28;20453;-48
2022/06/30 02:48:25;;;;;;;13.03;11.83;;;21.90;77.10;;;;;;5049922;28;20491;-48
2022/06/30 02:50:52;;;;;;;12.67;11.33;;;21.90;77.10;;;;;;5066299;28;20612;-48
2022/06/30 02:53:19;;;;;;;10.37;9.47;;;21.90;77.10;;;;;;5048106;28;20448;-48
2022/06/30 02:55:45;;;;;;;10.63;9.53;;;21.90;77.10;;;;;;5048340;28;20452;-48
2022/06/30 02:58:12;;;;;;;13.00;10.67;;;21.90;76.80;;;;;;5048656;28;20942;-48
2022/06/30 03:00:41;;;;;;;11.53;10.37;;;21.90;76.90;;;;;;5061206;28;21096;-48
2022/06/30 03:03:08;;;;;;;12.60;9.00;;;21.90;77.00;;;;;;5064412;28;20472;-48
2022/06/30 03:05:35;;;;;;;11.37;10.13;;;21.90;76.70;;;;;;5051606;28;20445;-49
2022/06/30 03:08:02;;;;;;;12.47;11.20;;;21.80;76.90;;;;;;5065648;28;20485;-48
2022/06/30 03:10:28;;;;;;;11.80;10.70;;;21.80;77.30;;;;;;5066039;28;20445;-48
2022/06/30 03:12:55;;;;;;;11.50;10.30;;;21.70;77.50;;;;;;5049808;28;20453;-48
2022/06/30 03:15:22;;;;;;;11.50;10.30;;;21.70;77.50;;;;;;5061899;28;20445;-48
2022/06/30 03:17:49;;;;;;;11.23;10.13;;;21.70;77.70;;;;;;5060659;28;20937;-48
2022/06/30 03:20:15;;;;;;;11.80;10.60;;;21.70;77.80;;;;;;5063506;28;20454;-48
2022/06/30 03:22:43;;;;;;;11.17;10.07;;;21.70;77.90;;;;;;5060822;28;20553;-48
2022/06/30 03:25:10;;;;;;;10.30;9.20;;;21.60;77.90;;;;;;5042456;28;20471;-48
2022/06/30 03:27:37;;;;;;;10.20;9.20;;;21.70;77.80;;;;;;5050511;28;20484;-48
2022/06/30 03:30:04;;;;;;;14.57;9.47;;;21.70;77.60;;;;;;5050648;28;21021;-48
2022/06/30 03:32:31;;;;;;;12.77;10.37;;;21.60;77.60;;;;;;5048390;28;20446;-48
2022/06/30 03:34:58;;;;;;;12.20;9.93;;;21.60;77.60;;;;;;5065337;28;20800;-48
2022/06/30 03:37:29;;;;;;;11.67;10.50;;;21.60;77.70;;;;;;5050519;28;20497;-48
2022/06/30 03:39:55;;;;;;;10.57;9.50;;;21.50;77.90;;;;;;5062432;28;20450;-48
2022/06/30 03:42:23;;;;;;;10.93;10.00;;;21.50;78.30;;;;;;5063358;28;20481;-48
2022/06/30 03:44:50;;;;;;;11.33;10.23;;;21.50;78.50;;;;;;5052077;28;20446;-48
2022/06/30 03:47:17;;;;;;;10.27;9.33;;;21.50;78.50;;;;;;5066333;28;20485;-48
2022/06/30 03:49:44;;;;;;;10.97;9.87;;;21.40;78.60;;;;;;5067720;28;20451;-48
2022/06/30 03:52:11;;;;;;;9.87;8.90;;;21.40;78.70;;;;;;5065583;28;20457;-48
2022/06/30 03:54:38;;;;;;;11.63;10.43;;;21.40;78.60;;;;;;5064746;28;20437;-48
2022/06/30 03:57:05;;;;;;;10.13;9.13;;;21.40;78.50;;;;;;5033663;28;20446;-48
2022/06/30 03:59:35;;;;;;;11.63;10.33;;;21.40;78.70;;;;;;5069622;28;20466;-48
2022/06/30 04:02:02;;;;;;;11.50;10.40;;;21.30;78.80;;;;;;5052701;28;20440;-48
2022/06/30 04:04:29;;;;;;;12.87;10.10;;;21.30;78.90;;;;;;5051320;28;20459;-48
2022/06/30 04:06:56;;;;;;;11.27;9.73;;;21.30;78.90;;;;;;5067991;28;20922;-48
2022/06/30 04:09:22;;;;;;;11.63;10.53;;;21.30;78.90;;;;;;5067963;28;20485;-48
2022/06/30 04:11:49;;;;;;;11.20;10.10;;;21.30;78.80;;;;;;5066101;28;20457;-48
2022/06/30 04:14:16;;;;;;;11.20;9.57;;;21.30;78.80;;;;;;5068545;28;20814;-48
2022/06/30 04:16:43;;;;;;;11.10;9.90;;;21.30;78.40;;;;;;5065696;28;20457;-48
2022/06/30 04:19:10;;;;;;;9.97;8.97;;;21.40;78.00;;;;;;5066552;28;20470;-48
2022/06/30 04:21:37;;;;;;;9.67;8.70;;;21.40;78.00;;;;;;5066031;28;20453;-48
2022/06/30 04:24:04;;;;;;;10.80;9.80;;;21.30;78.30;;;;;;5048520;28;20452;-48
2022/06/30 04:26:30;;;;;;;10.60;9.53;;;21.30;78.40;;;;;;5053275;28;20441;-48
2022/06/30 04:28:57;;;;;;;12.23;9.90;;;21.30;78.30;;;;;;5066574;28;20486;-48
2022/06/30 04:34:09;;;;;;;11.00;10.00;;;21.30;78.30;;;;;;5064230;28;20946;-48
2022/06/30 04:36:36;;;;;;;11.67;10.60;;;21.30;78.60;;;;;;5065550;28;20449;-48
2022/06/30 04:39:03;;;;;;;13.17;10.23;;;21.30;78.70;;;;;;5057204;28;20498;-48
2022/06/30 04:41:29;;;;;;;10.43;9.50;;;21.30;78.80;;;;;;5067373;28;20810;-48
2022/06/30 04:43:58;;;;;;;11.73;10.10;;;21.30;78.90;;;;;;5066954;28;20460;-48
2022/06/30 04:46:26;;;;;;;11.20;9.57;;;21.30;78.90;;;;;;5054017;28;20476;-48
2022/06/30 04:48:53;;;;;;;11.23;9.30;;;21.30;78.90;;;;;;5069552;28;20482;-48
2022/06/30 04:51:20;;;;;;;11.37;10.20;;;21.30;78.90;;;;;;5069310;28;20442;-48
2022/06/30 04:53:47;;;;;;;11.37;8.97;;;21.30;79.00;;;;;;5067212;28;20446;-48
2022/06/30 04:56:14;;;;;;;11.10;10.10;;;21.30;79.00;;;;;;5068006;28;20446;-48
2022/06/30 04:58:41;;;;;;;14.20;9.00;;;21.40;79.10;;;;;;5046466;28;20818;-48
2022/06/30 05:01:08;;;;;;;10.57;9.57;;;21.40;78.90;;;;;;5050775;28;21020;-48
2022/06/30 05:03:35;;;;;;;9.50;8.60;;;21.40;79.00;;;;;;5050934;28;20461;-48
2022/06/30 05:06:03;;;;;;;10.20;9.20;;;21.50;78.90;;;;;;5068920;28;20449;-48
2022/06/30 05:08:30;;;;;;;10.83;9.80;;;21.50;78.60;;;;;;5049372;28;20576;-48
2022/06/30 05:10:58;;;;;;;13.80;9.27;;;21.60;78.10;;;;;;5064298;28;20533;-48
2022/06/30 05:13:25;;;;;;;10.00;9.00;;;21.60;78.10;;;;;;5052530;28;20445;-48
2022/06/30 05:15:52;;;;;;;11.67;10.47;;;21.70;78.10;;;;;;5063990;28;20464;-48
2022/06/30 05:18:19;;;;;;;10.40;9.40;;;21.70;77.80;;;;;;5069256;28;20447;-48
2022/06/30 05:20:46;;;;;;;11.07;9.40;;;21.70;78.00;;;;;;5048332;28;20473;-48
2022/06/30 05:23:13;;;;;;;10.03;9.10;;;21.80;77.90;;;;;;5066374;28;20447;-48
2022/06/30 05:28:25;;;;;;;9.93;8.83;;;21.90;77.60;;;;;;5068823;28;20483;-48
2022/06/30 05:30:52;;;;;;;10.60;9.50;;;22.00;77.30;;;;;;5065518;28;20457;-48
2022/06/30 05:33:21;;;;;;;9.73;8.73;;;21.90;77.40;;;;;;5066387;28;20442;-48
2022/06/30 05:35:50;;;;;;;11.20;9.77;;;22.00;77.50;;;;;;5053484;28;20454;-48
2022/06/30 05:38:18;;;;;;;10.80;9.80;;;22.00;77.60;;;;;;5061340;28;20442;-48
2022/06/30 05:40:46;;;;;;;13.10;10.20;;;22.00;77.20;;;;;;5059327;28;20442;-48
2022/06/30 05:43:14;;;;;;;11.20;10.03;;;22.10;76.90;;;;;;5064632;28;20961;-48
2022/06/30 05:45:41;;;;;;;10.10;9.10;;;22.20;76.90;;;;;;5064959;28;20450;-48
2022/06/30 05:48:08;;;;;;;11.23;10.13;;;22.20;76.90;;;;;;5065053;28;20569;-48
2022/06/30 05:50:35;;;;;;;13.63;10.50;;;22.20;77.00;;;;;;5047592;28;20448;-48
2022/06/30 05:53:02;;;;;;;11.97;10.60;;;22.30;77.00;;;;;;5059263;28;20445;-48
2022/06/30 05:55:29;;;;;;;13.37;11.10;;;22.30;76.90;;;;;;5051080;28;20446;-48
2022/06/30 05:58:01;;;;;;;12.37;11.17;;;22.40;76.90;;;;;;5066324;28;20448;-48
2022/06/30 06:00:29;;;;;;;12.30;11.00;;;22.50;76.80;;;;;;5066749;28;20472;-48
2022/06/30 06:02:57;;;;;;;12.10;10.80;;;22.50;76.80;;;;;;5066326;28;20479;-48
2022/06/30 06:05:25;;;;;;;12.40;11.00;;;22.70;76.90;;;;;;5059203;28;20445;-50
2022/06/30 06:07:52;;;;;;;12.87;11.33;;;22.70;76.70;;;;;;5059306;28;20506;-50
2022/06/30 06:10:19;;;;;;;14.37;12.90;;;22.80;77.00;;;;;;5060030;28;20443;-50
2022/06/30 06:12:46;;;;;;;16.63;13.60;;;22.90;77.30;;;;;;5048236;28;20906;-50
2022/06/30 06:15:14;;;;;;;15.73;12.97;;;22.90;77.40;;;;;;5061926;28;20442;-50
2022/06/30 06:17:42;;;;;;;17.07;12.57;;;23.00;77.60;;;;;;5060461;28;20449;-50
2022/06/30 06:20:11;;;;;;;16.63;13.17;;;23.00;77.70;;;;;;5058531;28;20453;-50
2022/06/30 06:22:38;;;;;;;13.80;12.40;;;23.20;77.50;;;;;;5056900;28;20532;-50
2022/06/30 06:25:06;;;;;;;14.53;12.10;;;23.30;77.20;;;;;;5061254;28;20441;-50
2022/06/30 06:27:33;;;;;;;27.30;12.90;;;23.40;77.10;;;;;;5059490;28;20445;-50
2022/06/30 06:30:03;;;;;;;13.73;12.33;;;23.50;76.80;;;;;;5061775;28;20487;-50
2022/06/30 06:32:30;;;;;;;16.03;12.80;;;23.60;76.50;;;;;;5058994;28;20454;-50
2022/06/30 06:34:58;;;;;;;14.77;13.27;;;23.60;76.40;;;;;;5060621;28;20965;-50
2022/06/30 06:37:26;;;;;;;14.17;12.50;;;23.60;76.50;;;;;;5060579;28;20441;-50
2022/06/30 06:39:53;;;;;;;15.40;13.73;;;23.70;76.30;;;;;;5043362;28;20446;-50
2022/06/30 06:42:20;;;;;;;16.03;12.13;;;23.80;76.50;;;;;;5060587;28;20440;-50
2022/06/30 06:44:50;;;;;;;14.80;12.73;;;23.90;75.80;;;;;;5044010;28;20449;-50
2022/06/30 06:47:17;;;;;;;14.93;13.33;;;23.90;75.80;;;;;;5047728;28;20463;-50
2022/06/30 06:49:44;;;;;;;14.73;13.23;;;24.00;75.50;;;;;;5063330;28;20484;-50
2022/06/30 06:52:11;;;;;;;22.40;13.03;;;24.10;75.40;;;;;;5064154;28;20532;-50
2022/06/30 06:54:38;;;;;;;15.20;12.60;;;24.10;75.10;;;;;;5047227;28;20438;-50
2022/06/30 06:57:05;;;;;;;14.73;12.77;;;24.20;75.10;;;;;;5060971;28;20568;-50
2022/06/30 06:59:34;;;;;;;14.20;12.90;;;24.30;75.00;;;;;;5063655;28;20461;-50
2022/06/30 07:02:01;;;;;;;13.67;11.93;;;24.40;74.90;;;;;;5046559;28;20471;-50
2022/06/30 07:04:28;;;;;;;13.93;12.60;;;24.50;74.40;;;;;;5050245;28;20808;-50
2022/06/30 07:06:55;;;;;;;13.80;12.33;;;24.60;73.70;;;;;;5061471;28;20445;-50
2022/06/30 07:09:22;;;;;;;14.30;12.70;;;24.70;73.00;;;;;;5047710;28;20576;-50
2022/06/30 07:11:49;;;;;;;15.00;11.50;;;24.80;72.60;;;;;;5044888;28;20446;-50
2022/06/30 07:14:16;;;;;;;14.27;12.63;;;24.90;72.80;;;;;;5048720;28;20521;-50
2022/06/30 07:16:43;;;;;;;14.70;12.10;;;25.00;72.10;;;;;;5065917;28;21040;-51
2022/06/30 07:19:10;;;;;;;12.10;10.83;;;25.10;71.90;;;;;;5052277;28;20448;-51
2022/06/30 07:21:42;;;;;;;13.97;12.67;;;25.20;71.60;;;;;;5049390;28;21122;-50
2022/06/30 07:24:09;;;;;;;14.23;12.40;;;25.40;71.50;;;;;;5063550;28;20446;-50
2022/06/30 07:26:35;;;;;;;12.57;11.27;;;25.50;71.20;;;;;;5063883;28;20449;-50
2022/06/30 07:29:02;;;;;;;12.50;11.03;;;25.60;71.50;;;;;;5063687;28;20485;-50
2022/06/30 07:31:29;;;;;;;13.93;11.30;;;25.80;71.00;;;;;;5061135;28;20438;-50
2022/06/30 07:33:56;;;;;;;13.90;11.80;;;26.00;70.90;;;;;;5062750;28;20863;-50
2022/06/30 07:36:23;;;;;;;12.33;10.93;;;26.10;70.30;;;;;;5061021;28;20438;-50
2022/06/30 07:38:49;;;;;;;13.07;11.70;;;26.30;69.10;;;;;;5063404;28;20456;-50
2022/06/30 07:41:17;;;;;;;12.97;11.60;;;26.50;68.80;;;;;;5062314;28;20437;-50
2022/06/30 07:43:44;;;;;;;18.27;12.57;;;26.60;68.20;;;;;;5050007;28;20861;-50
2022/06/30 07:46:12;;;;;;;13.13;11.83;;;26.80;67.60;;;;;;5064467;28;20445;-51
2022/06/30 07:48:39;;;;;;;13.67;12.27;;;26.90;66.60;;;;;;5063370;28;20562;-51
2022/06/30 07:51:06;;;;;;;12.43;11.13;;;27.00;66.00;;;;;;5064983;28;20468;-50
2022/06/30 07:53:33;;;;;;;12.23;10.97;;;27.10;65.80;;;;;;5047632;28;20443;-50
2022/06/30 07:56:00;;;;;;;14.47;12.47;;;27.30;65.40;;;;;;5064566;28;20294;-50
2022/06/30 07:58:26;;;;;;;13.30;12.10;;;27.40;65.10;;;;;;5061963;28;20688;-50
2022/06/30 08:00:53;;;;;;;13.30;11.10;;;27.50;64.70;;;;;;5062833;28;20475;-50
2022/06/30 08:03:20;;;;;;;15.90;12.00;;;27.60;64.50;;;;;;5062319;28;20207;-50
2022/06/30 08:05:47;;;;;;;13.90;11.93;;;27.80;64.60;;;;;;5041647;28;20698;-51
2022/06/30 08:08:14;;;;;;;12.70;11.60;;;27.90;64.40;;;;;;5059567;28;20211;-50
2022/06/30 08:10:40;;;;;;;15.60;13.27;;;28.00;64.50;;;;;;5046777;28;20206;-50
2022/06/30 08:13:08;;;;;;;14.50;11.73;;;28.10;63.80;;;;;;5063852;28;20206;-50
2022/06/30 08:15:36;;;;;;;13.13;11.90;;;28.20;63.50;;;;;;5064887;28;20195;-50
2022/06/30 08:18:04;;;;;;;13.80;12.30;;;28.30;63.30;;;;;;5049154;28;20217;-50
2022/06/30 08:20:31;;;;;;;13.93;12.40;;;28.50;63.30;;;;;;5063288;28;20207;-50
2022/06/30 08:22:58;;;;;;;13.80;11.33;;;28.60;63.10;;;;;;5062436;28;20204;-50
2022/06/30 08:25:26;;;;;;;15.13;13.02;;;28.70;62.40;;;;;;5059439;28;20242;-50
2022/06/30 08:27:53;;;;;;;13.10;11.80;;;28.90;61.70;;;;;;5044068;28;20198;-50
2022/06/30 08:30:20;;;;;;;12.45;11.35;;;29.00;61.10;;;;;;5053381;28;20227;-50
2022/06/30 08:32:46;;;;;;;11.75;9.93;;;29.10;61.70;;;;;;5062889;28;20286;-50
2022/06/30 08:35:14;;;;;;;17.23;11.02;;;29.20;61.50;;;;;;5062418;28;20207;-50
2022/06/30 08:37:41;;;;;;;12.48;11.27;;;29.40;60.90;;;;;;5047128;28;20211;-50
2022/06/30 08:42:57;;;;;;;12.20;11.00;;;29.70;60.30;;;;;;5052112;28;20266;-50
2022/06/30 08:45:24;;;;;;;12.85;11.63;;;29.80;60.20;;;;;;5061453;28;20744;-50
2022/06/30 08:47:52;;;;;;;12.73;11.43;;;29.90;59.20;;;;;;5046138;28;20207;-50
2022/06/30 08:50:19;;;;;;;13.27;10.70;;;30.00;58.80;;;;;;5061442;28;20222;-50
2022/06/30 08:52:54;;;;;;;11.35;10.35;;;30.10;58.30;;;;;;5061602;28;20226;-50
2022/06/30 08:55:26;;;;;;;11.35;10.32;;;30.10;57.00;;;;;;5045410;28;20207;-50
2022/06/30 08:58:07;;;;;;;11.70;10.48;;;30.30;56.60;;;;;;5064802;28;20194;-50
2022/06/30 09:00:36;;;;;;;12.90;9.82;;;30.40;56.30;;;;;;5047525;28;20240;-50
2022/06/30 09:03:04;;;;;;;11.80;10.65;;;30.50;56.10;;;;;;5063252;28;20211;-50
2022/06/30 09:05:32;;;;;;;13.07;10.07;;;30.60;56.00;;;;;;5059562;28;20214;-50
2022/06/30 09:07:58;;;;;;;10.35;9.45;;;30.70;55.20;;;;;;5061157;28;20203;-50
2022/06/30 09:10:50;;;;;;;10.73;9.65;;;30.80;55.20;;;;;;5061167;28;20203;-50
2022/06/30 09:13:17;;;;;;;10.13;9.23;;;31.00;55.10;;;;;;5059384;28;20207;-50
2022/06/30 09:15:44;;;;;;;10.55;9.52;;;31.10;54.70;;;;;;5047042;28;20780;-50
2022/06/30 09:18:26;;;;;;;9.15;8.35;;;31.20;53.40;;;;;;5025870;28;20239;-50
2022/06/30 09:20:58;;;;;;;7.30;6.65;;;31.40;52.20;;;;;;5062938;28;20202;-50
2022/06/30 09:23:30;;;;;;;8.60;7.90;;;31.50;51.40;;;;;;5062277;28;20202;-50
2022/06/30 09:25:59;;;;;;;8.73;7.70;;;31.70;50.50;;;;;;5060260;28;20772;-50
2022/06/30 09:28:46;;;;;;;8.68;8.02;;;31.80;50.00;;;;;;5048159;28;20653;-50
2022/06/30 09:31:35;;;;;;;8.88;8.07;;;31.90;49.90;;;;;;5061707;28;20203;-50
2022/06/30 09:34:20;;;;;;;8.32;7.60;;;32.10;50.40;;;;;;5058429;28;20298;-50
2022/06/30 09:36:48;;;;;;;9.27;8.45;;;32.20;50.20;;;;;;5045413;28;20281;-50
2022/06/30 09:39:16;;;;;;;8.38;7.53;;;32.40;49.40;;;;;;5044093;28;20225;-51
2022/06/30 09:41:46;;;;;;;6.15;5.63;;;32.50;48.80;;;;;;5039903;28;20207;-51
2022/06/30 09:44:16;;;;;;;5.35;4.78;;;32.60;45.50;;;;;;5059686;28;20207;-51
2022/06/30 09:47:01;;;;;;;5.18;4.68;;;32.80;44.60;;;;;;5047187;28;20290;-51
2022/06/30 09:49:48;;;;;;;5.50;4.95;;;32.80;43.40;;;;;;5060142;28;20234;-51
2022/06/30 09:52:23;;;;;;;5.15;4.18;;;32.80;43.50;;;;;;5062226;28;20213;-51
2022/06/30 09:54:55;;;;;;;6.15;5.55;;;32.90;43.20;;;;;;5059524;28;20208;-51
2022/06/30 09:57:28;;;;;;;6.78;6.07;;;33.10;43.60;;;;;;5060242;28;20198;-51
2022/06/30 10:00:05;;;;;;;6.47;5.88;;;33.30;43.40;;;;;;5045552;28;20253;-50
2022/06/30 10:02:41;;;;;;;8.10;6.15;;;33.40;43.90;;;;;;5060514;28;20217;-51
2022/06/30 10:05:09;;;;;;;5.70;5.20;;;33.50;43.80;;;;;;5044942;28;20209;-51
2022/06/30 10:07:38;;;;;;;5.22;4.82;;;33.60;42.50;;;;;;5059271;28;20593;-51
2022/06/30 10:10:14;;;;;;;6.05;5.45;;;33.80;42.40;;;;;;5056850;28;20836;-51
2022/06/30 10:12:45;;;;;;;6.95;4.80;;;34.00;42.10;;;;;;5060201;28;20203;-51
2022/06/30 10:15:14;;;;;;;6.70;5.72;;;34.30;41.80;;;;;;5062099;28;20210;-51
2022/06/30 10:17:52;;;;;;;4.50;4.10;;;34.40;41.00;;;;;;5060227;28;20211;-51
2022/06/30 10:20:22;;;;;;;4.05;3.75;;;34.50;40.00;;;;;;5030698;28;20257;-51
2022/06/30 10:22:49;;;;;;;4.72;3.95;;;34.60;38.70;;;;;;5060612;28;20212;-51
2022/06/30 10:25:17;;;;;;;4.35;4.05;;;34.70;37.40;;;;;;5065046;28;20265;-51
2022/06/30 10:27:46;;;;;;;5.82;4.38;;;34.80;37.80;;;;;;5064873;28;20229;-51
2022/06/30 10:30:15;;;;;;;4.55;4.25;;;34.90;38.90;;;;;;5064280;28;20692;-51
2022/06/30 10:32:56;;;;;;;3.55;3.33;;;34.80;38.10;;;;;;5064299;28;20201;-51
2022/06/30 10:35:41;;;;;;;4.65;3.97;;;34.70;38.20;;;;;;5062997;28;20213;-51
2022/06/30 10:38:20;;;;;;;4.70;4.32;;;34.40;37.80;;;;;;5063211;28;20684;-51
2022/06/30 10:41:03;;;;;;;4.43;3.97;;;34.20;38.40;;;;;;5061061;28;20211;-51
2022/06/30 10:43:33;;;;;;;5.40;4.32;;;34.00;39.70;;;;;;5065530;28;20211;-51
2022/06/30 10:46:06;;;;;;;7.00;4.47;;;33.90;40.10;;;;;;5064873;28;20579;-51
2022/06/30 10:48:53;;;;;;;5.00;4.10;;;33.80;39.60;;;;;;5063363;28;20262;-51
2022/06/30 10:51:24;;;;;;;5.13;4.00;;;33.70;39.90;;;;;;5049226;28;20212;-51
2022/06/30 10:53:54;;;;;;;5.18;4.68;;;33.50;40.50;;;;;;5063618;28;20207;-51
2022/06/30 10:56:23;;;;;;;4.72;3.85;;;33.20;40.30;;;;;;5044725;28;20203;-51
2022/06/30 10:59:13;;;;;;;4.50;4.10;;;33.00;40.30;;;;;;5063910;28;20294;-51
2022/06/30 11:02:13;;;;;;;5.93;3.92;;;32.80;40.30;;;;;;5060697;28;20210;-50
2022/06/30 11:04:41;;;;;;;4.70;4.32;;;32.50;40.50;;;;;;5050754;28;20203;-51
2022/06/30 11:07:11;;;;;;;4.68;4.28;;;32.40;41.10;;;;;;5066729;28;20237;-51
2022/06/30 11:09:43;;;;;;;5.00;4.60;;;32.20;41.90;;;;;;5064942;28;20234;-51
2022/06/30 11:12:19;;;;;;;4.75;4.30;;;32.10;41.80;;;;;;5063613;28;20571;-51
2022/06/30 11:14:56;;;;;;;4.90;4.07;;;31.90;42.00;;;;;;5047594;28;20292;-50
2022/06/30 11:17:29;;;;;;;4.63;4.22;;;31.70;42.60;;;;;;5061349;28;20219;-50
2022/06/30 11:20:10;;;;;;;7.20;4.15;;;31.60;42.60;;;;;;5063378;28;20678;-50
2022/06/30 11:22:37;;;;;;;3.80;3.50;;;31.50;43.00;;;;;;5049796;28;20235;-50
2022/06/30 11:25:06;;;;;;;5.05;4.15;;;31.30;43.90;;;;;;5043248;28;20892;-50
2022/06/30 11:27:35;;;;;;;4.50;4.10;;;31.10;43.00;;;;;;5061393;28;20785;-50
2022/06/30 11:30:09;;;;;;;5.53;4.10;;;31.00;43.50;;;;;;5062516;28;20219;-50
2022/06/30 11:32:37;;;;;;;5.20;3.53;;;31.00;43.00;;;;;;5062782;28;20218;-50
2022/06/30 11:35:05;;;;;;;4.82;3.65;;;30.90;42.90;;;;;;5061499;28;20207;-50
2022/06/30 11:37:35;;;;;;;3.75;3.45;;;30.90;42.90;;;;;;5061254;28;20213;-50
2022/06/30 11:40:08;;;;;;;3.60;3.30;;;30.90;42.40;;;;;;5061129;28;20207;-50
2022/06/30 11:42:35;;;;;;;4.70;3.67;;;30.80;42.60;;;;;;5042811;28;20290;-50
2022/06/30 11:45:14;;;;;;;10.05;4.78;;;30.70;42.60;;;;;;5062288;28;20211;-50
2022/06/30 11:47:42;;;;;;;5.82;4.25;;;30.60;43.20;;;;;;5061865;28;20206;-50
2022/06/30 11:50:21;;;;;;;4.75;3.72;;;30.60;42.40;;;;;;5065694;28;20309;-50
2022/06/30 11:52:50;;;;;;;3.75;3.45;;;30.60;42.50;;;;;;5065235;28;20589;-50
2022/06/30 11:55:18;;;;;;;4.05;3.75;;;30.60;42.90;;;;;;5059133;28;20202;-50
2022/06/30 11:57:48;;;;;;;5.03;4.40;;;30.60;43.20;;;;;;5048432;28;20573;-48
2022/06/30 12:00:21;;;;;;;3.65;3.35;;;30.70;43.60;;;;;;5046859;28;20233;-49
2022/06/30 12:02:49;;;;;;;4.18;3.88;;;30.70;43.30;;;;;;5032785;28;20235;-49
2022/06/30 12:05:19;;;;;;;4.60;3.45;;;30.70;43.70;;;;;;5063509;28;20218;-49
2022/06/30 12:07:46;;;;;;;4.53;3.92;;;30.70;42.80;;;;;;5058116;28;20209;-49
2022/06/30 12:10:16;;;;;;;3.70;3.45;;;30.70;44.00;;;;;;5062021;28;20245;-49
2022/06/30 12:12:43;;;;;;;5.68;4.65;;;30.70;43.60;;;;;;5063248;28;20207;-49
2022/06/30 12:15:16;;;;;;;4.07;3.78;;;30.70;42.00;;;;;;5062093;28;20213;-49
2022/06/30 12:17:45;;;;;;;4.10;3.78;;;30.70;42.10;;;;;;5059816;28;20207;-48
2022/06/30 12:20:14;;;;;;;4.15;3.75;;;30.70;42.30;;;;;;5066406;28;20297;-49
2022/06/30 12:22:46;;;;;;;4.03;3.63;;;30.70;42.20;;;;;;5046220;28;20217;-49
2022/06/30 12:25:14;;;;;;;4.30;3.75;;;30.70;42.10;;;;;;5050480;28;20217;-49
2022/06/30 12:27:46;;;;;;;5.72;3.85;;;30.70;42.20;;;;;;5063569;28;20221;-49
2022/06/30 12:30:16;;;;;;;3.97;3.67;;;30.60;42.50;;;;;;5044791;28;20754;-49
2022/06/30 12:32:53;;;;;;;5.82;3.17;;;30.60;43.20;;;;;;5060784;28;20235;-49
2022/06/30 12:35:22;;;;;;;4.22;3.38;;;30.60;42.10;;;;;;5058338;28;20210;-49
2022/06/30 12:37:55;;;;;;;3.35;3.05;;;30.70;41.80;;;;;;5059116;28;20203;-49
2022/06/30 12:40:28;;;;;;;3.00;2.80;;;30.70;41.80;;;;;;5052883;28;20231;-49
2022/06/30 12:43:02;;;;;;;5.75;3.15;;;30.70;40.80;;;;;;5063784;28;20237;-51
2022/06/30 12:45:36;;;;;;;4.15;3.85;;;30.70;41.30;;;;;;5059062;28;20211;-48
2022/06/30 12:48:05;;;;;;;3.42;3.17;;;30.60;41.40;;;;;;5046861;28;20290;-48
2022/06/30 12:50:33;;;;;;;5.30;3.20;;;30.60;41.20;;;;;;5063822;28;20672;-48
2022/06/30 12:53:23;;;;;;;3.50;3.20;;;30.60;41.60;;;;;;5061270;28;20471;-48